createdAt,value
2019-05-25T00:01:45.191Z,13.00
2019-05-25T00:04:13.898Z,12.90
2019-05-25T00:06:42.489Z,12.90
2019-05-25T00:09:11.235Z,12.80
2019-05-25T00:11:39.853Z,12.80
2019-05-25T00:14:08.425Z,12.70
2019-05-25T00:16:37.054Z,12.60
2019-05-25T00:19:05.945Z,12.60
2019-05-25T00:21:34.461Z,12.50
2019-05-25T00:24:11.780Z,12.50
2019-05-25T00:26:33.409Z,12.40
2019-05-25T00:29:02.010Z,12.50
2019-05-25T00:31:30.571Z,12.40
2019-05-25T00:33:59.259Z,12.40
2019-05-25T00:36:27.903Z,12.40
2019-05-25T00:38:56.466Z,12.50
2019-05-25T00:41:25.180Z,12.50
2019-05-25T00:43:53.815Z,12.50
2019-05-25T00:46:22.677Z,12.50
2019-05-25T00:48:51.238Z,12.50
2019-05-25T00:51:19.878Z,12.50
2019-05-25T00:53:48.714Z,12.50
2019-05-25T00:56:17.494Z,12.40
2019-05-25T00:58:46.272Z,12.40
2019-05-25T01:01:14.916Z,12.40
2019-05-25T01:03:43.503Z,12.40
2019-05-25T01:06:12.198Z,12.40
2019-05-25T01:08:40.795Z,12.30
2019-05-25T01:11:09.387Z,12.30
2019-05-25T01:13:37.969Z,12.30
2019-05-25T01:16:06.720Z,12.20
2019-05-25T01:18:35.306Z,12.20
2019-05-25T01:21:03.963Z,12.20
2019-05-25T01:23:32.636Z,12.20
2019-05-25T01:26:01.290Z,12.20
2019-05-25T01:28:30.236Z,12.20
2019-05-25T01:30:58.827Z,12.20
2019-05-25T01:33:27.494Z,12.20
2019-05-25T01:35:56.568Z,12.20
2019-05-25T01:38:25.119Z,12.20
2019-05-25T01:40:53.723Z,12.20
2019-05-25T01:43:22.318Z,12.20
2019-05-25T01:45:50.875Z,12.20
2019-05-25T01:48:19.586Z,12.20
2019-05-25T01:50:48.157Z,12.20
2019-05-25T01:53:16.807Z,12.20
2019-05-25T01:55:45.374Z,12.20
2019-05-25T01:58:14.059Z,12.20
2019-05-25T02:00:42.716Z,12.20
2019-05-25T02:03:11.383Z,12.20
2019-05-25T02:05:40.120Z,12.20
2019-05-25T02:08:08.859Z,12.20
2019-05-25T02:10:37.429Z,12.20
2019-05-25T02:13:06.007Z,12.30
2019-05-25T02:15:34.702Z,12.30
2019-05-25T02:18:03.689Z,12.40
2019-05-25T02:20:32.238Z,12.30
2019-05-25T02:23:00.812Z,12.40
2019-05-25T02:25:29.389Z,12.40
2019-05-25T02:27:57.961Z,12.40
2019-05-25T02:30:28.747Z,12.50
2019-05-25T02:32:57.759Z,12.50
2019-05-25T02:35:28.310Z,12.50
2019-05-25T02:37:57.741Z,12.50
2019-05-25T02:40:26.890Z,12.60
2019-05-25T02:42:55.617Z,12.60
2019-05-25T02:45:24.469Z,12.60
2019-05-25T02:47:53.041Z,12.60
2019-05-25T02:50:22.047Z,12.60
2019-05-25T02:52:50.620Z,12.50
2019-05-25T02:55:32.926Z,12.60
2019-05-25T02:57:50.098Z,12.60
2019-05-25T03:00:21.754Z,12.70
2019-05-25T03:02:50.605Z,12.70
2019-05-25T03:05:19.409Z,12.70
2019-05-25T03:07:49.386Z,12.70
2019-05-25T03:10:18.606Z,12.80
2019-05-25T03:12:47.590Z,13.00
2019-05-25T03:15:16.995Z,13.00
2019-05-25T03:17:45.886Z,13.10
2019-05-25T03:20:15.646Z,13.20
2019-05-25T03:22:44.249Z,13.30
2019-05-25T03:25:13.399Z,13.40
2019-05-25T03:27:41.984Z,13.40
2019-05-25T03:30:11.319Z,13.50
2019-05-25T03:32:40.136Z,13.50
2019-05-25T03:35:09.126Z,13.50
2019-05-25T03:37:37.695Z,13.50
2019-05-25T03:40:08.306Z,13.60
2019-05-25T03:42:37.327Z,13.60
2019-05-25T03:45:07.423Z,13.70
2019-05-25T03:47:36.167Z,13.70
2019-05-25T03:50:05.698Z,13.70
2019-05-25T03:52:34.371Z,13.80
2019-05-25T03:55:03.506Z,13.80
2019-05-25T03:57:32.144Z,13.80
2019-05-25T04:00:00.757Z,13.90
2019-05-25T04:02:29.415Z,13.80
2019-05-25T04:04:58.014Z,13.90
2019-05-25T04:07:26.620Z,13.80
2019-05-25T04:09:55.611Z,13.90
2019-05-25T04:12:24.203Z,13.80
2019-05-25T04:14:52.869Z,13.80
2019-05-25T04:17:21.469Z,13.90
2019-05-25T04:19:50.098Z,13.90
2019-05-25T04:22:18.659Z,13.90
2019-05-25T04:24:47.256Z,13.80
2019-05-25T04:27:15.924Z,13.80
2019-05-25T04:29:46.439Z,13.80
2019-05-25T04:32:14.706Z,13.70
2019-05-25T04:34:43.674Z,13.80
2019-05-25T04:37:12.306Z,13.70
2019-05-25T04:39:40.883Z,13.70
2019-05-25T04:42:09.497Z,13.70
2019-05-25T04:44:38.085Z,13.80
2019-05-25T04:47:06.662Z,13.80
2019-05-25T04:49:35.294Z,13.70
2019-05-25T04:52:05.506Z,13.80
2019-05-25T04:54:34.178Z,13.70
2019-05-25T04:57:03.017Z,13.70
2019-05-25T04:59:31.879Z,13.50
2019-05-25T05:02:00.490Z,13.40
2019-05-25T05:04:29.091Z,13.30
2019-05-25T05:06:57.743Z,13.20
2019-05-25T05:09:26.324Z,13.10
2019-05-25T05:11:55.154Z,13.10
2019-05-25T05:14:23.766Z,13.10
2019-05-25T05:16:52.383Z,13.10
2019-05-25T05:19:21.048Z,13.00
2019-05-25T05:21:49.724Z,13.00
2019-05-25T05:24:18.569Z,13.00
2019-05-25T05:26:55.735Z,13.10
2019-05-25T05:29:17.347Z,13.10
2019-05-25T05:31:46.131Z,13.20
2019-05-25T05:34:14.837Z,13.20
2019-05-25T05:36:44.952Z,13.30
2019-05-25T05:39:14.557Z,13.40
2019-05-25T05:41:44.694Z,13.50
2019-05-25T05:44:16.032Z,13.50
2019-05-25T05:46:47.178Z,13.60
2019-05-25T05:49:17.267Z,13.70
2019-05-25T05:51:50.604Z,13.70
2019-05-25T05:54:21.209Z,13.80
2019-05-25T05:56:50.497Z,13.80
2019-05-25T05:59:19.281Z,13.90
2019-05-25T06:01:48.163Z,13.90
2019-05-25T06:04:16.859Z,13.90
2019-05-25T06:06:45.733Z,13.90
2019-05-25T06:09:14.535Z,13.90
2019-05-25T06:11:43.583Z,14.00
2019-05-25T06:14:12.200Z,14.00
2019-05-25T06:16:40.814Z,14.10
2019-05-25T06:19:09.547Z,14.10
2019-05-25T06:21:38.129Z,14.10
2019-05-25T06:24:09.094Z,14.20
2019-05-25T06:26:37.714Z,14.20
2019-05-25T06:29:06.463Z,14.20
2019-05-25T06:31:35.234Z,14.30
2019-05-25T06:34:04.400Z,14.30
2019-05-25T06:36:32.999Z,14.40
2019-05-25T06:39:01.664Z,14.50
2019-05-25T06:41:30.227Z,14.60
2019-05-25T06:43:59.175Z,14.60
2019-05-25T06:46:27.917Z,14.60
2019-05-25T06:48:56.596Z,14.60
2019-05-25T06:51:25.271Z,14.80
2019-05-25T06:53:53.939Z,14.90
2019-05-25T06:56:22.606Z,15.10
2019-05-25T06:58:51.258Z,15.20
2019-05-25T07:01:19.860Z,15.20
2019-05-25T07:03:48.433Z,15.30
2019-05-25T07:06:17.025Z,15.40
2019-05-25T07:08:45.670Z,15.50
2019-05-25T07:11:14.367Z,15.50
2019-05-25T07:13:42.943Z,15.60
2019-05-25T07:16:11.608Z,15.70
2019-05-25T07:18:40.271Z,15.80
2019-05-25T07:21:08.933Z,16.00
2019-05-25T07:23:37.499Z,16.00
2019-05-25T07:26:06.177Z,16.20
2019-05-25T07:28:35.212Z,16.20
2019-05-25T07:31:03.911Z,16.40
2019-05-25T07:33:32.626Z,16.70
2019-05-25T07:36:01.194Z,16.80
2019-05-25T07:38:29.777Z,17.00
2019-05-25T07:40:58.357Z,17.20
2019-05-25T07:43:26.943Z,17.50
2019-05-25T07:45:55.598Z,17.50
2019-05-25T07:48:25.035Z,17.70
2019-05-25T07:50:53.879Z,17.50
2019-05-25T07:53:22.683Z,17.40
2019-05-25T07:55:51.388Z,17.50
2019-05-25T07:58:20.095Z,17.80
2019-05-25T08:00:48.722Z,18.20
2019-05-25T08:03:17.323Z,18.10
2019-05-25T08:05:46.003Z,18.40
2019-05-25T08:08:14.667Z,18.70
2019-05-25T08:10:43.741Z,18.90
2019-05-25T08:13:12.382Z,18.70
2019-05-25T08:15:41.046Z,18.70
2019-05-25T08:18:09.644Z,18.80
2019-05-25T08:20:38.206Z,18.60
2019-05-25T08:23:06.893Z,18.60
2019-05-25T08:25:35.554Z,18.40
2019-05-25T08:28:04.282Z,18.30
2019-05-25T08:30:33.176Z,18.40
2019-05-25T08:33:01.916Z,18.40
2019-05-25T08:35:30.554Z,18.60
2019-05-25T08:37:59.162Z,18.70
2019-05-25T08:40:27.727Z,19.00
2019-05-25T08:42:56.459Z,19.30
2019-05-25T08:45:26.028Z,19.30
2019-05-25T08:47:57.256Z,19.20
2019-05-25T08:50:37.864Z,19.20
2019-05-25T08:52:55.895Z,19.30
2019-05-25T08:55:24.472Z,19.40
2019-05-25T08:57:53.115Z,19.50
2019-05-25T09:00:22.090Z,19.60
2019-05-25T09:02:50.694Z,19.50
2019-05-25T09:05:19.421Z,19.60
2019-05-25T09:07:48.061Z,19.30
2019-05-25T09:10:16.821Z,18.80
2019-05-25T09:12:45.556Z,18.50
2019-05-25T09:15:14.916Z,18.30
2019-05-25T09:17:43.547Z,18.20
2019-05-25T09:20:12.850Z,18.20
2019-05-25T09:22:41.467Z,18.10
2019-05-25T09:25:11.084Z,18.10
2019-05-25T09:27:39.963Z,18.40
2019-05-25T09:30:14.893Z,18.40
2019-05-25T09:32:43.626Z,18.40
2019-05-25T09:35:13.080Z,18.90
2019-05-25T09:37:41.821Z,19.10
2019-05-25T09:40:12.048Z,19.30
2019-05-25T09:42:41.451Z,19.10
2019-05-25T09:45:13.994Z,18.90
2019-05-25T09:47:41.733Z,19.10
2019-05-25T09:50:12.387Z,19.60
2019-05-25T09:52:40.987Z,20.70
2019-05-25T09:55:10.519Z,21.30
2019-05-25T09:57:41.609Z,21.10
2019-05-25T10:00:12.639Z,20.80
2019-05-25T10:02:42.159Z,20.20
2019-05-25T10:05:11.972Z,19.70
2019-05-25T10:07:40.726Z,19.40
2019-05-25T10:10:11.739Z,19.50
2019-05-25T10:12:40.451Z,20.90
2019-05-25T10:15:10.123Z,22.70
2019-05-25T10:17:38.751Z,23.00
2019-05-25T10:20:08.891Z,23.00
2019-05-25T10:22:37.783Z,23.20
2019-05-25T10:25:10.402Z,24.20
2019-05-25T10:27:39.017Z,24.00
2019-05-25T10:30:09.609Z,22.60
2019-05-25T10:32:38.269Z,21.70
2019-05-25T10:35:08.672Z,21.60
2019-05-25T10:37:37.322Z,22.10
2019-05-25T10:40:07.548Z,23.10
2019-05-25T10:42:36.300Z,24.10
2019-05-25T10:45:09.272Z,25.70
2019-05-25T10:47:38.079Z,25.30
2019-05-25T10:50:11.268Z,25.10
2019-05-25T10:52:40.031Z,24.60
2019-05-25T10:55:10.718Z,24.70
2019-05-25T10:57:39.474Z,24.00
2019-05-25T11:00:12.742Z,23.80
2019-05-25T11:02:41.457Z,25.20
2019-05-25T11:05:10.892Z,26.80
2019-05-25T11:07:39.538Z,27.80
2019-05-25T11:10:11.027Z,27.20
2019-05-25T11:12:39.966Z,26.80
2019-05-25T11:15:11.422Z,25.60
2019-05-25T11:17:40.075Z,25.90
2019-05-25T11:20:10.799Z,25.40
2019-05-25T11:22:39.523Z,24.70
2019-05-25T11:25:12.253Z,24.60
2019-05-25T11:27:40.979Z,25.10
2019-05-25T11:30:11.987Z,24.80
2019-05-25T11:32:40.713Z,25.00
2019-05-25T11:35:10.848Z,24.70
2019-05-25T11:37:39.643Z,24.70
2019-05-25T11:40:09.551Z,25.40
2019-05-25T11:42:38.266Z,25.50
2019-05-25T11:45:09.094Z,24.40
2019-05-25T11:47:37.933Z,23.90
2019-05-25T11:50:08.956Z,24.50
2019-05-25T11:52:37.677Z,24.60
2019-05-25T11:55:08.455Z,24.50
2019-05-25T11:57:37.127Z,24.60
2019-05-25T12:00:24.205Z,24.80
2019-05-25T12:02:42.233Z,25.20
2019-05-25T12:05:11.683Z,25.10
2019-05-25T12:07:43.917Z,25.60
2019-05-25T12:10:12.559Z,25.10
2019-05-25T12:12:41.459Z,25.30
2019-05-25T12:15:10.715Z,27.00
2019-05-25T12:17:39.425Z,26.80
2019-05-25T12:20:08.811Z,26.50
2019-05-25T12:22:37.824Z,25.90
2019-05-25T12:25:07.354Z,25.60
2019-05-25T12:27:35.902Z,25.30
2019-05-25T12:30:09.391Z,24.60
2019-05-25T12:32:38.094Z,24.00
2019-05-25T12:35:08.194Z,23.50
2019-05-25T12:37:36.961Z,23.10
2019-05-25T12:40:07.054Z,22.90
2019-05-25T12:42:35.857Z,22.80
2019-05-25T12:45:06.590Z,23.00
2019-05-25T12:47:35.429Z,23.30
2019-05-25T12:50:06.037Z,23.20
2019-05-25T12:52:34.743Z,24.50
2019-05-25T12:55:03.931Z,25.30
2019-05-25T12:57:32.504Z,25.10
2019-05-25T13:00:14.240Z,25.50
2019-05-25T13:02:31.829Z,24.80
2019-05-25T13:05:00.633Z,23.80
2019-05-25T13:07:29.450Z,23.20
2019-05-25T13:09:58.060Z,22.90
2019-05-25T13:12:26.812Z,22.50
2019-05-25T13:14:55.498Z,22.20
2019-05-25T13:17:24.259Z,22.20
2019-05-25T13:19:53.221Z,22.20
2019-05-25T13:22:30.250Z,22.20
2019-05-25T13:24:59.074Z,22.20
2019-05-25T13:27:27.833Z,22.30
2019-05-25T13:29:56.843Z,22.10
2019-05-25T13:32:25.436Z,22.10
2019-05-25T13:34:54.196Z,22.10
2019-05-25T13:37:22.912Z,21.90
2019-05-25T13:39:51.600Z,22.10
2019-05-25T13:42:20.200Z,21.90
2019-05-25T13:44:49.012Z,22.00
2019-05-25T13:47:17.685Z,22.70
2019-05-25T13:49:46.278Z,22.90
2019-05-25T13:52:14.874Z,23.10
2019-05-25T13:54:43.508Z,23.70
2019-05-25T13:57:12.110Z,23.80
2019-05-25T13:59:40.746Z,23.00
2019-05-25T14:02:09.314Z,22.40
2019-05-25T14:04:38.028Z,22.00
2019-05-25T14:07:06.647Z,23.10
2019-05-25T14:09:35.346Z,25.00
2019-05-25T14:12:04.037Z,25.60
2019-05-25T14:14:32.713Z,24.40
2019-05-25T14:17:01.317Z,23.70
2019-05-25T14:19:29.950Z,22.80
2019-05-25T14:21:58.479Z,22.20
2019-05-25T14:24:27.170Z,21.90
2019-05-25T14:26:55.945Z,21.60
2019-05-25T14:29:26.297Z,21.20
2019-05-25T14:31:54.826Z,20.90
2019-05-25T14:34:23.454Z,20.60
2019-05-25T14:36:52.094Z,20.50
2019-05-25T14:39:20.798Z,20.30
2019-05-25T14:41:49.555Z,20.10
2019-05-25T14:44:18.221Z,20.10
2019-05-25T14:46:46.887Z,20.30
2019-05-25T14:49:15.946Z,20.30
2019-05-25T14:51:49.039Z,20.40
2019-05-25T14:54:17.678Z,20.20
2019-05-25T14:56:46.274Z,20.10
2019-05-25T14:59:14.968Z,20.40
2019-05-25T15:01:43.674Z,20.50
2019-05-25T15:04:12.374Z,20.40
2019-05-25T15:06:41.149Z,20.00
2019-05-25T15:09:09.743Z,19.90
2019-05-25T15:11:38.442Z,19.60
2019-05-25T15:14:07.112Z,19.40
2019-05-25T15:16:35.736Z,19.30
2019-05-25T15:19:04.506Z,19.30
2019-05-25T15:21:33.249Z,19.30
2019-05-25T15:24:01.959Z,19.20
2019-05-25T15:26:30.503Z,19.10
2019-05-25T15:28:59.180Z,19.00
2019-05-25T15:31:27.861Z,19.00
2019-05-25T15:33:56.471Z,19.00
2019-05-25T15:36:25.060Z,19.00
2019-05-25T15:38:53.667Z,18.90
2019-05-25T15:41:22.370Z,18.70
2019-05-25T15:43:51.048Z,18.70
2019-05-25T15:46:19.782Z,18.60
2019-05-25T15:48:48.435Z,18.50
2019-05-25T15:51:17.017Z,18.40
2019-05-25T15:53:45.653Z,18.50
2019-05-25T15:56:14.254Z,18.80
2019-05-25T15:58:43.028Z,18.70
2019-05-25T16:01:11.830Z,18.60
2019-05-25T16:03:40.418Z,18.50
2019-05-25T16:06:09.108Z,18.50
2019-05-25T16:08:37.934Z,18.30
2019-05-25T16:11:06.629Z,18.20
2019-05-25T16:13:35.363Z,18.20
2019-05-25T16:16:04.279Z,18.20
2019-05-25T16:18:32.885Z,18.10
2019-05-25T16:21:01.592Z,18.00
2019-05-25T16:23:30.212Z,18.00
2019-05-25T16:25:58.826Z,18.10
2019-05-25T16:28:27.426Z,17.90
2019-05-25T16:30:55.994Z,17.90
2019-05-25T16:33:24.675Z,17.70
2019-05-25T16:35:57.245Z,17.60
2019-05-25T16:38:23.624Z,17.50
2019-05-25T16:40:52.403Z,17.50
2019-05-25T16:43:21.026Z,17.40
2019-05-25T16:45:49.735Z,17.20
2019-05-25T16:48:18.701Z,17.20
2019-05-25T16:50:47.302Z,17.10
2019-05-25T16:53:16.019Z,17.10
2019-05-25T16:55:44.644Z,17.10
2019-05-25T16:58:13.279Z,17.10
2019-05-25T17:00:41.950Z,17.10
2019-05-25T17:03:26.536Z,17.10
2019-05-25T17:05:41.046Z,17.00
2019-05-25T17:08:09.717Z,17.00
2019-05-25T17:10:38.577Z,16.90
2019-05-25T17:13:07.287Z,16.90
2019-05-25T17:15:36.006Z,16.90
2019-05-25T17:18:05.248Z,16.90
2019-05-25T17:20:34.191Z,16.90
2019-05-25T17:23:02.964Z,16.80
2019-05-25T17:25:31.917Z,16.80
2019-05-25T17:28:00.438Z,16.70
2019-05-25T17:30:46.471Z,16.60
2019-05-25T17:33:15.725Z,16.60
2019-05-25T17:35:44.581Z,16.50
2019-05-25T17:38:13.350Z,16.40
2019-05-25T17:40:42.029Z,16.40
2019-05-25T17:43:10.703Z,16.30
2019-05-25T17:45:39.465Z,16.20
2019-05-25T17:48:08.185Z,16.10
2019-05-25T17:50:37.123Z,16.10
2019-05-25T17:53:05.818Z,16.10
2019-05-25T17:55:34.466Z,16.00
2019-05-25T17:58:03.139Z,15.90
2019-05-25T18:00:46.909Z,15.90
2019-05-25T18:03:15.613Z,15.80
2019-05-25T18:05:44.612Z,15.70
2019-05-25T18:08:13.317Z,15.70
2019-05-25T18:10:52.622Z,15.60
2019-05-25T18:13:12.545Z,15.60
2019-05-25T18:15:41.518Z,15.60
2019-05-25T18:18:10.259Z,15.60
2019-05-25T18:20:39.030Z,15.60
2019-05-25T18:23:07.767Z,15.70
2019-05-25T18:25:36.595Z,15.60
2019-05-25T18:28:06.314Z,15.60
2019-05-25T18:30:34.965Z,15.50
2019-05-25T18:33:04.005Z,15.50
2019-05-25T18:35:33.043Z,15.40
2019-05-25T18:38:01.636Z,15.40
2019-05-25T18:40:30.368Z,15.30
2019-05-25T18:42:59.054Z,15.30
2019-05-25T18:45:27.776Z,15.20
2019-05-25T18:47:56.302Z,15.30
2019-05-25T18:50:26.350Z,15.20
2019-05-25T18:52:55.022Z,15.10
2019-05-25T18:55:23.749Z,15.10
2019-05-25T18:57:52.447Z,15.10
2019-05-25T19:00:21.991Z,15.00
2019-05-25T19:02:50.797Z,15.00
2019-05-25T19:05:19.929Z,15.00
2019-05-25T19:07:48.634Z,14.90
2019-05-25T19:10:17.951Z,14.90
2019-05-25T19:12:46.513Z,14.90
2019-05-25T19:15:16.838Z,14.90
2019-05-25T19:17:45.552Z,14.80
2019-05-25T19:20:20.703Z,14.80
2019-05-25T19:22:45.141Z,14.80
2019-05-25T19:25:15.628Z,14.80
2019-05-25T19:27:44.242Z,14.70
2019-05-25T19:30:13.587Z,14.80
2019-05-25T19:32:42.284Z,14.70
2019-05-25T19:35:11.609Z,14.70
2019-05-25T19:37:42.389Z,14.60
2019-05-25T19:40:11.836Z,14.60
2019-05-25T19:42:40.406Z,14.50
2019-05-25T19:45:10.253Z,14.50
2019-05-25T19:47:38.883Z,14.40
2019-05-25T19:50:10.692Z,14.30
2019-05-25T19:52:39.351Z,14.30
2019-05-25T19:55:08.393Z,14.20
2019-05-25T19:57:37.134Z,14.10
2019-05-25T20:00:07.274Z,14.10
2019-05-25T20:02:36.047Z,14.10
2019-05-25T20:05:16.291Z,14.10
2019-05-25T20:07:39.182Z,14.20
2019-05-25T20:10:09.839Z,14.20
2019-05-25T20:12:38.527Z,14.20
2019-05-25T20:15:08.903Z,14.20
2019-05-25T20:17:37.674Z,14.30
2019-05-25T20:20:07.527Z,14.20
2019-05-25T20:22:36.197Z,14.20
2019-05-25T20:25:06.329Z,14.20
2019-05-25T20:27:35.070Z,14.20
2019-05-25T20:30:08.052Z,14.20
2019-05-25T20:32:36.703Z,14.20
2019-05-25T20:35:07.434Z,14.20
2019-05-25T20:37:36.155Z,14.20
2019-05-25T20:40:07.613Z,14.20
2019-05-25T20:42:36.801Z,14.10
2019-05-25T20:45:09.346Z,14.10
2019-05-25T20:47:38.148Z,14.10
2019-05-25T20:50:08.357Z,14.00
2019-05-25T20:52:37.088Z,14.00
2019-05-25T20:55:07.948Z,14.00
2019-05-25T20:57:36.496Z,14.00
2019-05-25T21:00:08.826Z,14.00
2019-05-25T21:02:37.565Z,13.90
2019-05-25T21:05:07.097Z,13.90
2019-05-25T21:07:35.726Z,13.80
2019-05-25T21:10:06.922Z,13.80
2019-05-25T21:12:35.595Z,13.70
2019-05-25T21:15:06.829Z,13.70
2019-05-25T21:17:35.629Z,13.60
2019-05-25T21:20:06.326Z,13.60
2019-05-25T21:22:34.907Z,13.60
2019-05-25T21:25:06.254Z,13.60
2019-05-25T21:27:35.502Z,13.60
2019-05-25T21:30:05.324Z,13.60
2019-05-25T21:32:33.979Z,13.60
2019-05-25T21:35:02.650Z,13.60
2019-05-25T21:37:31.417Z,13.50
2019-05-25T21:39:59.979Z,13.40
2019-05-25T21:42:28.653Z,13.40
2019-05-25T21:44:57.231Z,13.40
2019-05-25T21:47:25.803Z,13.40
2019-05-25T21:49:54.429Z,13.30
2019-05-25T21:52:23.223Z,13.30
2019-05-25T21:54:51.852Z,13.20
2019-05-25T21:57:20.482Z,13.10
2019-05-25T21:59:50.921Z,13.10
2019-05-25T22:02:19.597Z,13.10
2019-05-25T22:04:48.316Z,13.00
2019-05-25T22:07:16.924Z,12.90
2019-05-25T22:09:45.559Z,12.90
2019-05-25T22:12:14.269Z,12.80
2019-05-25T22:14:42.935Z,12.70
2019-05-25T22:17:12.038Z,12.70
2019-05-25T22:19:40.602Z,12.70
2019-05-25T22:22:09.418Z,12.70
2019-05-25T22:24:38.006Z,12.70
2019-05-25T22:27:06.631Z,12.60
2019-05-25T22:29:35.258Z,12.60
2019-05-25T22:32:04.010Z,12.50
2019-05-25T22:34:32.591Z,12.50
2019-05-25T22:37:01.331Z,12.40
2019-05-25T22:39:30.036Z,12.40
2019-05-25T22:41:58.579Z,12.30
2019-05-25T22:44:27.516Z,12.30
2019-05-25T22:46:56.290Z,12.20
2019-05-25T22:49:24.931Z,12.10
2019-05-25T22:51:53.546Z,12.10
2019-05-25T22:54:22.171Z,12.10
2019-05-25T22:56:50.775Z,12.00
2019-05-25T22:59:19.493Z,12.00
2019-05-25T23:01:48.170Z,12.00
2019-05-25T23:04:16.767Z,12.00
2019-05-25T23:06:57.133Z,11.90
2019-05-25T23:09:15.552Z,11.90
2019-05-25T23:11:44.154Z,11.80
2019-05-25T23:14:12.764Z,11.80
2019-05-25T23:16:41.398Z,11.80
2019-05-25T23:19:10.333Z,11.70
2019-05-25T23:21:38.927Z,11.70
2019-05-25T23:24:07.668Z,11.70
2019-05-25T23:26:36.327Z,11.70
2019-05-25T23:29:05.130Z,11.60
2019-05-25T23:31:33.867Z,11.60
2019-05-25T23:34:02.631Z,11.60
2019-05-25T23:36:31.695Z,11.50
2019-05-25T23:39:00.368Z,11.50
2019-05-25T23:41:28.997Z,11.50
2019-05-25T23:43:59.754Z,11.40
2019-05-25T23:46:27.954Z,11.50
2019-05-25T23:48:56.556Z,11.50
2019-05-25T23:51:25.156Z,11.50
2019-05-25T23:53:53.790Z,11.50
2019-05-25T23:56:22.402Z,11.50
2019-05-25T23:58:50.992Z,11.50
